Time;durP1;ratioP1;P1;durP2;ratioP2;P2;SDS_P1;SDS_P2;PMS_P1;PMS_P2;Temp;Humidity;BMP_temperature;BMP_pressure;BME280_temperature;BME280_humidity;BME280_pressure;Samples;Min_cycle;Max_cycle;Signal;HPM_P1;HPM_P2
2023/06/06 00:00:31;;;;;;;13.65;5.38;;;;;;;11.96;100.00;102187.31;5089293;28;20050;-50
2023/06/06 00:02:56;;;;;;;11.18;4.95;;;;;;;11.95;100.00;102200.94;5088467;28;20031;-47
2023/06/06 00:05:25;;;;;;;10.80;5.30;;;;;;;11.91;100.00;102194.19;5069457;28;20032;-48
2023/06/06 00:07:50;;;;;;;20.15;5.70;;;;;;;11.93;100.00;102193.03;5068339;28;20025;-48
2023/06/06 00:10:16;;;;;;;22.25;6.45;;;;;;;11.91;100.00;102184.25;5081768;28;20366;-48
2023/06/06 00:12:43;;;;;;;15.38;5.93;;;;;;;11.90;100.00;102189.78;5089074;28;20067;-50
2023/06/06 00:15:10;;;;;;;14.35;5.85;;;;;;;11.85;100.00;102195.63;5072396;28;20402;-48
2023/06/06 00:17:36;;;;;;;10.73;5.70;;;;;;;11.86;100.00;102197.34;5076692;28;20052;-48
2023/06/06 00:20:08;;;;;;;15.18;6.85;;;;;;;11.83;100.00;102200.34;5088394;28;20040;-48
2023/06/06 00:22:35;;;;;;;14.50;5.32;;;;;;;11.79;100.00;102188.16;5096250;28;20115;-48
2023/06/06 00:25:00;;;;;;;11.77;6.18;;;;;;;11.77;100.00;102195.56;5077795;28;20368;-47
2023/06/06 00:27:26;;;;;;;15.10;5.85;;;;;;;11.81;100.00;102188.84;5079471;28;20040;-48
2023/06/06 00:29:51;;;;;;;11.75;6.07;;;;;;;11.82;100.00;102187.84;5083266;28;20049;-48
2023/06/06 00:32:16;;;;;;;14.48;6.00;;;;;;;11.80;100.00;102189.88;5090525;28;20536;-48
2023/06/06 00:34:42;;;;;;;17.05;6.43;;;;;;;11.77;100.00;102184.75;5076306;28;20529;-50
2023/06/06 00:37:07;;;;;;;14.80;6.03;;;;;;;11.75;100.00;102189.50;5077018;28;20477;-50
2023/06/06 00:39:32;;;;;;;11.15;6.13;;;;;;;11.74;100.00;102190.47;5080408;28;20501;-49
2023/06/06 00:41:58;;;;;;;15.80;6.20;;;;;;;11.69;100.00;102188.28;5096227;28;20369;-50
2023/06/06 00:44:23;;;;;;;15.15;6.53;;;;;;;11.73;100.00;102186.09;5087643;28;20127;-49
2023/06/06 00:46:49;;;;;;;15.25;5.95;;;;;;;11.67;100.00;102189.44;5084418;28;20067;-48
2023/06/06 00:49:16;;;;;;;12.15;6.28;;;;;;;11.68;100.00;102191.09;5094898;28;20040;-48
2023/06/06 00:51:42;;;;;;;13.30;5.90;;;;;;;11.63;100.00;102189.72;5075979;28;20112;-48
2023/06/06 00:54:16;;;;;;;12.85;5.90;;;;;;;11.62;100.00;102182.63;5088536;28;20033;-48
2023/06/06 00:56:43;;;;;;;17.60;7.07;;;;;;;11.58;100.00;102189.34;5058697;28;20032;-52
2023/06/06 00:59:09;;;;;;;15.20;6.53;;;;;;;11.58;100.00;102193.88;5075544;28;20127;-50
2023/06/06 01:01:36;;;;;;;16.27;6.72;;;;;;;11.56;100.00;102191.38;5096240;28;20097;-48
2023/06/06 01:04:04;;;;;;;17.05;7.15;;;;;;;11.52;100.00;102189.97;5090031;28;20020;-49
2023/06/06 01:06:33;;;;;;;16.27;7.15;;;;;;;11.52;100.00;102192.66;5077420;28;20067;-49
2023/06/06 01:09:01;;;;;;;15.65;5.95;;;;;;;11.53;100.00;102186.28;5077201;28;20076;-48
2023/06/06 01:11:52;;;;;;;15.15;6.28;;;;;;;11.53;100.00;102191.69;5093564;28;20093;-48
2023/06/06 01:14:43;;;;;;;13.40;6.32;;;;;;;11.54;100.00;102187.97;5074984;28;20123;-50
2023/06/06 01:17:09;;;;;;;14.23;6.30;;;;;;;11.52;100.00;102181.88;5089630;28;20040;-49
2023/06/06 01:19:37;;;;;;;17.02;6.80;;;;;;;11.49;100.00;102186.75;5076449;28;20048;-48
2023/06/06 01:22:03;;;;;;;;;;;;;;;11.50;100.00;102177.63;5075756;28;20104;-48
2023/06/06 01:24:29;;;;;;;17.75;6.03;;;;;;;11.48;100.00;102185.91;5094255;28;20053;-48
2023/06/06 01:26:57;;;;;;;14.65;6.25;;;;;;;11.47;100.00;102178.78;5093307;28;20666;-47
2023/06/06 01:29:23;;;;;;;20.27;6.88;;;;;;;11.40;100.00;102181.28;5093181;28;20016;-49
2023/06/06 01:32:53;;;;;;;12.25;6.25;;;;;;;11.37;100.00;102178.03;5090770;28;20028;-49
2023/06/06 01:35:50;;;;;;;17.58;6.80;;;;;;;11.34;100.00;102178.34;4982567;28;20061;-48
2023/06/06 01:38:20;;;;;;;15.95;7.00;;;;;;;11.31;100.00;102178.66;5071707;28;20111;-47
2023/06/06 01:40:46;;;;;;;13.18;7.25;;;;;;;11.28;100.00;102178.97;5065847;28;20029;-48
2023/06/06 01:43:12;;;;;;;15.73;6.70;;;;;;;11.26;100.00;102178.28;5071480;28;20089;-51
2023/06/06 01:45:38;;;;;;;15.75;6.80;;;;;;;11.28;100.00;102176.28;5072788;28;20136;-48
2023/06/06 01:48:04;;;;;;;14.63;6.65;;;;;;;11.28;100.00;102170.88;5071679;28;20025;-49
2023/06/06 01:50:31;;;;;;;16.17;6.57;;;;;;;11.25;100.00;102179.28;5072868;28;20025;-48
2023/06/06 01:52:56;;;;;;;17.83;6.60;;;;;;;11.24;100.00;102188.34;5072706;28;20024;-48
2023/06/06 01:55:22;;;;;;;17.05;6.97;;;;;;;11.19;100.00;102173.50;5072893;28;20360;-51
2023/06/06 01:57:48;;;;;;;13.52;6.68;;;;;;;11.19;100.00;102176.19;5082886;28;20044;-50
2023/06/06 02:00:15;;;;;;;17.70;6.88;;;;;;;11.19;100.00;102170.81;5092648;28;20028;-48
2023/06/06 02:02:40;;;;;;;16.70;6.50;;;;;;;11.19;100.00;102173.50;5092188;28;20077;-48
2023/06/06 02:05:06;;;;;;;15.05;6.22;;;;;;;11.17;100.00;102177.34;5087056;28;20634;-48
2023/06/06 02:07:34;;;;;;;19.17;6.65;;;;;;;11.15;100.00;102177.50;5071989;28;20130;-48
2023/06/06 02:10:04;;;;;;;;;;;;;;;11.16;100.00;102168.44;5072683;28;20104;-49
2023/06/06 02:12:30;;;;;;;14.98;6.43;;;;;;;11.18;100.00;102169.09;5072100;28;19912;-49
2023/06/06 02:14:58;;;;;;;15.55;7.35;;;;;;;11.09;100.00;102175.41;5089387;28;20024;-50
2023/06/06 02:17:23;;;;;;;21.75;7.28;;;;;;;11.04;100.00;102177.72;5091656;28;20036;-49
2023/06/06 02:19:48;;;;;;;17.92;6.63;;;;;;;11.07;100.00;102182.81;5092445;28;20042;-49
2023/06/06 02:22:14;;;;;;;17.08;7.65;;;;;;;11.02;100.00;102179.72;5076283;28;20088;-50
2023/06/06 02:24:40;;;;;;;16.40;6.70;;;;;;;11.03;100.00;102184.09;5085059;28;20054;-48
2023/06/06 02:27:09;;;;;;;18.02;6.50;;;;;;;11.00;100.00;102184.41;5092035;28;20028;-50
2023/06/06 02:29:37;;;;;;;13.60;5.97;;;;;;;11.03;100.00;102191.31;5072790;28;20033;-51
2023/06/06 02:32:03;;;;;;;14.40;6.55;;;;;;;10.99;100.00;102182.72;5070276;28;20108;-48
2023/06/06 02:34:29;;;;;;;15.93;6.47;;;;;;;10.99;100.00;102188.09;5078902;28;20035;-50
2023/06/06 02:36:56;;;;;;;11.90;6.25;;;;;;;10.93;100.00;102183.34;5070515;28;20414;-48
2023/06/06 02:39:22;;;;;;;14.30;6.60;;;;;;;10.96;100.00;102181.16;5070247;28;20033;-48
2023/06/06 02:41:47;;;;;;;17.17;6.80;;;;;;;10.96;100.00;102180.31;5070789;28;20016;-50
2023/06/06 02:44:12;;;;;;;14.63;6.50;;;;;;;10.92;100.00;102176.22;5083480;28;20497;-48
2023/06/06 02:46:38;;;;;;;16.80;7.55;;;;;;;10.92;100.00;102185.16;5087187;28;20462;-51
2023/06/06 02:49:04;;;;;;;20.30;6.63;;;;;;;10.88;100.00;102188.31;5090559;28;20542;-48
2023/06/06 02:51:30;;;;;;;22.00;6.95;;;;;;;10.85;100.00;102184.09;5082719;28;20025;-48
2023/06/06 02:53:55;;;;;;;11.77;6.82;;;;;;;10.86;100.00;102184.94;5086935;28;20577;-51
2023/06/06 02:56:20;;;;;;;15.32;6.68;;;;;;;10.84;100.00;102181.53;5091645;28;20040;-50
2023/06/06 02:58:47;;;;;;;23.52;9.18;;;;;;;10.80;100.00;102191.75;5091209;28;20044;-49
2023/06/06 03:01:13;;;;;;;18.70;7.20;;;;;;;10.83;100.00;102187.94;5090903;28;20043;-47
2023/06/06 03:03:40;;;;;;;16.52;6.22;;;;;;;10.76;100.00;102185.81;5078330;28;20021;-49
2023/06/06 03:06:07;;;;;;;18.52;6.43;;;;;;;10.76;100.00;102184.97;5071183;28;20324;-50
2023/06/06 03:08:33;;;;;;;13.70;6.28;;;;;;;10.76;100.00;102195.75;5071116;28;20060;-49
2023/06/06 03:10:58;;;;;;;15.68;6.40;;;;;;;10.67;100.00;102197.50;5073264;28;20116;-47
2023/06/06 03:13:24;;;;;;;14.68;6.95;;;;;;;10.70;100.00;102194.50;5090641;28;20094;-46
2023/06/06 03:15:49;;;;;;;15.30;6.43;;;;;;;10.73;100.00;102193.34;5073036;28;20041;-48
2023/06/06 03:18:20;;;;;;;16.90;6.43;;;;;;;10.67;100.00;102196.66;5070942;28;20024;-51
2023/06/06 03:20:46;;;;;;;16.65;6.15;;;;;;;10.64;100.00;102200.50;5085611;28;20043;-49
2023/06/06 03:23:12;;;;;;;15.23;6.25;;;;;;;10.63;100.00;102198.78;5085106;28;20031;-50
2023/06/06 03:25:43;;;;;;;14.35;6.10;;;;;;;10.67;100.00;102196.66;5085624;28;20119;-52
2023/06/06 03:28:12;;;;;;;17.15;6.25;;;;;;;10.63;100.00;102196.09;5068712;28;20428;-49
2023/06/06 03:30:38;;;;;;;16.15;7.00;;;;;;;10.66;100.00;102201.16;5068625;28;20432;-49
2023/06/06 03:33:06;;;;;;;16.00;5.70;;;;;;;10.66;100.00;102195.78;5079684;28;20077;-48
2023/06/06 03:35:33;;;;;;;19.38;7.05;;;;;;;10.66;100.00;102198.47;5086680;28;20036;-48
2023/06/06 03:37:59;;;;;;;12.63;6.25;;;;;;;10.63;100.00;102197.94;5088788;28;20442;-50
2023/06/06 03:40:24;;;;;;;19.60;7.55;;;;;;;10.65;100.00;102194.09;5070809;28;20051;-49
2023/06/06 03:42:50;;;;;;;14.70;6.50;;;;;;;10.64;100.00;102191.56;5074603;28;20028;-50
2023/06/06 03:45:16;;;;;;;13.48;6.68;;;;;;;10.65;100.00;102196.78;5073333;28;20429;-50
2023/06/06 03:47:42;;;;;;;18.48;6.32;;;;;;;10.63;100.00;102192.56;5068849;28;20089;-48
2023/06/06 03:50:08;;;;;;;17.08;7.03;;;;;;;10.65;100.00;102194.09;5067634;28;20107;-49
2023/06/06 03:52:33;;;;;;;16.42;6.07;;;;;;;10.66;100.00;102194.94;5081109;28;20084;-50
2023/06/06 03:54:59;;;;;;;12.90;5.95;;;;;;;10.67;100.00;102197.50;5088144;28;20167;-49
2023/06/06 03:57:25;;;;;;;13.35;5.90;;;;;;;10.67;100.00;102194.81;5088443;28;20039;-48
2023/06/06 03:59:51;;;;;;;20.05;6.50;;;;;;;10.69;100.00;102189.25;5088523;28;20097;-48
2023/06/06 04:02:17;;;;;;;21.77;6.95;;;;;;;10.72;100.00;102195.22;5069953;28;20047;-48
2023/06/06 04:04:43;;;;;;;16.55;6.43;;;;;;;10.73;100.00;102204.97;5068562;28;20033;-51
2023/06/06 04:07:09;;;;;;;19.13;5.97;;;;;;;10.78;100.00;102204.53;5068497;28;20482;-50
2023/06/06 04:09:35;;;;;;;22.83;6.47;;;;;;;10.79;100.00;102199.97;5067291;28;20036;-52
2023/06/06 04:12:01;;;;;;;17.42;6.55;;;;;;;10.80;100.00;102197.16;5081630;28;20480;-51
2023/06/06 04:14:27;;;;;;;17.88;7.38;;;;;;;10.86;100.00;102187.63;5075593;28;20028;-50
2023/06/06 04:16:53;;;;;;;17.05;6.63;;;;;;;10.93;100.00;102186.88;5082429;28;20500;-48
2023/06/06 04:19:18;;;;;;;17.48;6.72;;;;;;;10.95;100.00;102192.09;5072913;28;20478;-52
2023/06/06 04:21:43;;;;;;;20.63;6.82;;;;;;;10.98;100.00;102197.19;5077855;28;20402;-53
2023/06/06 04:24:10;;;;;;;17.77;6.30;;;;;;;11.02;100.00;102190.50;5068475;28;20028;-48
2023/06/06 04:26:36;;;;;;;16.02;5.85;;;;;;;11.02;100.00;102185.09;5068417;28;20082;-49
2023/06/06 04:29:02;;;;;;;15.98;6.18;;;;;;;11.06;100.00;102194.59;5069289;28;20036;-48
2023/06/06 04:31:32;;;;;;;15.88;6.15;;;;;;;11.12;100.00;102190.44;5080138;28;20032;-49
2023/06/06 04:34:00;;;;;;;16.35;5.97;;;;;;;11.19;100.00;102189.66;5072842;28;20021;-51
2023/06/06 04:36:26;;;;;;;;;;;;;;;11.26;100.00;102186.34;5072040;28;20024;-48
2023/06/06 04:38:51;;;;;;;22.52;6.07;;;;;;;11.29;100.00;102180.66;5074303;28;19981;-48
2023/06/06 04:41:17;;;;;;;19.42;6.78;;;;;;;11.33;100.00;102179.34;5069630;28;20048;-49
2023/06/06 04:43:44;;;;;;;17.38;5.82;;;;;;;11.38;100.00;102185.13;5070538;28;20028;-49
2023/06/06 04:46:09;;;;;;;18.00;6.15;;;;;;;11.42;100.00;102187.34;5071122;28;20104;-48
2023/06/06 04:48:35;;;;;;;16.40;5.75;;;;;;;11.47;100.00;102191.44;5069237;28;20367;-50
2023/06/06 04:51:01;;;;;;;17.58;6.05;;;;;;;11.50;100.00;102191.97;5071666;28;20063;-50
2023/06/06 04:53:26;;;;;;;16.88;5.70;;;;;;;11.60;100.00;102190.03;5070488;28;20141;-49
2023/06/06 04:55:55;;;;;;;16.42;5.70;;;;;;;11.67;100.00;102189.44;5061163;28;20028;-51
2023/06/06 04:58:21;;;;;;;17.38;5.95;;;;;;;11.75;100.00;102189.50;5082728;28;20500;-47
2023/06/06 05:00:48;;;;;;;20.75;6.45;;;;;;;11.81;100.00;102183.47;5079875;28;20109;-50
2023/06/06 05:03:19;;;;;;;18.33;6.40;;;;;;;11.94;100.00;102181.22;5078649;28;20485;-49
2023/06/06 05:05:47;;;;;;;16.42;5.80;;;;;;;11.98;100.00;102181.75;5085517;28;20068;-49
2023/06/06 05:08:13;;;;;;;;;;;;;;;12.01;100.00;102176.91;5074144;28;20382;-49
2023/06/06 05:10:39;;;;;;;17.50;6.00;;;;;;;12.10;100.00;102175.09;5074597;28;19916;-50
2023/06/06 05:13:05;;;;;;;24.55;5.88;;;;;;;12.13;100.00;102173.91;5075731;28;20583;-50
2023/06/06 05:15:30;;;;;;;16.30;5.38;;;;;;;12.22;100.00;102176.53;5090189;28;20028;-49
2023/06/06 05:17:56;;;;;;;16.30;6.00;;;;;;;12.28;100.00;102177.72;5091845;28;20492;-49
2023/06/06 05:20:24;;;;;;;13.07;5.38;;;;;;;12.33;100.00;102177.25;5079732;28;20024;-50
2023/06/06 05:22:50;;;;;;;11.13;5.22;;;;;;;12.40;100.00;102176.44;5073387;28;20020;-52
2023/06/06 05:25:15;;;;;;;18.10;5.63;;;;;;;12.55;100.00;102175.81;5074074;28;20082;-47
2023/06/06 05:27:41;;;;;;;14.75;5.60;;;;;;;12.63;100.00;102175.84;5072405;28;20308;-50
2023/06/06 05:30:08;;;;;;;14.15;5.30;;;;;;;12.71;100.00;102174.03;5074182;28;20462;-49
2023/06/06 05:32:33;;;;;;;19.27;6.03;;;;;;;12.76;100.00;102181.66;5090942;28;20058;-53
2023/06/06 05:35:01;;;;;;;18.90;6.82;;;;;;;12.83;100.00;102174.59;5090169;28;20036;-49
2023/06/06 05:37:28;;;;;;;14.63;5.28;;;;;;;12.92;100.00;102176.28;5093476;28;20032;-49
2023/06/06 05:39:53;;;;;;;15.23;5.72;;;;;;;12.94;100.00;102179.66;5093228;28;20514;-50
2023/06/06 05:42:19;;;;;;;15.15;6.05;;;;;;;13.03;100.00;102177.81;5083563;28;20037;-51
2023/06/06 05:44:44;;;;;;;11.32;5.60;;;;;;;13.08;100.00;102174.63;5079401;28;20474;-49
2023/06/06 05:47:10;;;;;;;17.73;6.47;;;;;;;13.16;100.00;102172.81;5093377;28;20027;-49
2023/06/06 05:49:35;;;;;;;19.70;6.03;;;;;;;13.28;100.00;102176.06;5092776;28;20051;-48
2023/06/06 05:52:02;;;;;;;26.10;6.13;;;;;;;13.33;100.00;102179.09;5091162;28;20108;-49
2023/06/06 05:54:28;;;;;;;15.50;6.07;;;;;;;13.45;100.00;102176.06;5091647;28;20336;-48
2023/06/06 05:56:56;;;;;;;22.63;6.38;;;;;;;13.56;100.00;102179.31;5066382;28;20078;-49
2023/06/06 05:59:21;;;;;;;14.77;5.18;;;;;;;13.67;100.00;102178.13;5071969;28;20621;-49
2023/06/06 06:01:49;;;;;;;19.35;5.70;;;;;;;13.74;100.00;102176.41;5071657;28;20036;-52
2023/06/06 06:04:16;;;;;;;23.58;6.45;;;;;;;13.83;100.00;102175.38;5072956;28;20052;-51
2023/06/06 06:06:41;;;;;;;16.30;5.43;;;;;;;13.92;100.00;102173.50;5072048;28;20020;-48
2023/06/06 06:09:08;;;;;;;20.60;5.47;;;;;;;14.03;100.00;102173.16;5073665;28;20107;-50
2023/06/06 06:11:33;;;;;;;17.05;5.85;;;;;;;14.13;100.00;102181.09;5072098;28;20025;-50
2023/06/06 06:13:59;;;;;;;19.02;7.10;;;;;;;14.18;100.00;102170.56;5092458;28;20505;-53
2023/06/06 06:16:24;;;;;;;19.08;5.80;;;;;;;14.25;100.00;102176.16;5090564;28;20020;-53
2023/06/06 06:18:51;;;;;;;13.52;5.40;;;;;;;14.38;100.00;102162.91;5090363;28;20414;-52
2023/06/06 06:21:16;;;;;;;15.85;5.38;;;;;;;14.56;100.00;102170.84;5073742;28;20037;-51
2023/06/06 06:23:42;;;;;;;16.83;5.60;;;;;;;14.84;100.00;102167.63;5091009;28;20114;-49
2023/06/06 06:26:07;;;;;;;16.05;5.82;;;;;;;15.11;100.00;102169.00;5092631;28;20019;-52
2023/06/06 06:28:33;;;;;;;15.18;5.07;;;;;;;15.38;100.00;102154.06;5093062;28;20024;-49
2023/06/06 06:30:58;;;;;;;17.75;5.95;;;;;;;15.59;100.00;102151.53;5071858;28;20098;-52
2023/06/06 06:33:24;;;;;;;18.13;6.22;;;;;;;15.79;100.00;102156.44;5091442;28;20138;-50
2023/06/06 06:35:50;;;;;;;12.82;4.88;;;;;;;15.85;100.00;102155.72;5091535;28;20032;-51
2023/06/06 06:38:15;;;;;;;10.00;5.15;;;;;;;15.87;100.00;102153.66;5090455;28;20444;-52
2023/06/06 06:40:41;;;;;;;9.30;4.47;;;;;;;16.00;100.00;102153.84;5091110;28;20047;-50
2023/06/06 06:43:06;;;;;;;13.88;4.95;;;;;;;16.08;100.00;102155.63;5092077;28;20059;-51
2023/06/06 06:45:31;;;;;;;15.80;4.93;;;;;;;16.11;100.00;102159.84;5092554;28;20032;-51
2023/06/06 06:47:59;;;;;;;19.77;5.50;;;;;;;16.05;100.00;102161.44;5092353;28;20374;-50
2023/06/06 06:50:25;;;;;;;15.23;5.15;;;;;;;16.08;100.00;102150.22;5090244;28;20035;-49
2023/06/06 06:52:53;;;;;;;14.07;5.60;;;;;;;16.13;100.00;102152.38;5092700;28;20032;-47
2023/06/06 06:55:18;;;;;;;;;;;;;;;16.38;100.00;102156.50;5092835;28;20102;-49
2023/06/06 06:57:45;;;;;;;12.15;4.70;;;;;;;16.86;100.00;102159.63;5092017;28;20379;-50
2023/06/06 07:00:15;;;;;;;15.68;5.45;;;;;;;17.66;100.00;102154.13;5090475;28;20342;-55
2023/06/06 07:02:42;;;;;;;14.93;4.82;;;;;;;18.47;100.00;102157.22;5091992;28;20089;-49
2023/06/06 07:05:08;;;;;;;14.88;4.65;;;;;;;19.29;100.00;102156.22;5090470;28;20058;-50
2023/06/06 07:07:34;;;;;;;16.83;4.22;;;;;;;20.08;100.00;102157.28;5091898;28;20027;-51
2023/06/06 07:10:00;;;;;;;13.65;4.65;;;;;;;20.72;98.95;102155.66;5091695;28;20020;-53
2023/06/06 07:12:25;;;;;;;15.10;4.38;;;;;;;21.31;95.43;102161.00;5091374;28;20039;-52
2023/06/06 07:14:51;;;;;;;11.50;4.50;;;;;;;21.98;91.75;102164.88;5091904;28;20031;-51
2023/06/06 07:17:18;;;;;;;10.43;4.43;;;;;;;22.33;88.66;102176.16;5091645;28;20040;-49
2023/06/06 07:19:43;;;;;;;11.27;4.18;;;;;;;22.69;87.31;102165.38;5090239;28;20068;-50
2023/06/06 07:22:10;;;;;;;16.33;4.35;;;;;;;23.29;83.33;102165.41;5091535;28;20023;-51
2023/06/06 07:24:35;;;;;;;11.63;4.30;;;;;;;23.57;82.27;102162.00;5091136;28;20052;-50
2023/06/06 07:27:02;;;;;;;8.70;4.45;;;;;;;23.81;80.10;102167.56;5090876;28;20052;-51
2023/06/06 07:29:29;;;;;;;8.57;4.25;;;;;;;24.07;77.65;102161.56;5091767;28;20028;-49
2023/06/06 07:31:55;;;;;;;6.95;4.00;;;;;;;23.94;78.45;102156.31;5089807;28;20449;-53
2023/06/06 07:34:21;;;;;;;10.43;4.30;;;;;;;24.32;75.97;102154.94;5091198;28;20053;-53
2023/06/06 07:36:46;;;;;;;12.70;4.40;;;;;;;24.31;76.02;102154.13;5091299;28;20146;-52
2023/06/06 07:39:11;;;;;;;8.52;4.40;;;;;;;24.42;73.86;102146.09;5091197;28;20149;-50
2023/06/06 07:41:39;;;;;;;11.27;4.78;;;;;;;24.27;74.44;102150.16;5089777;28;20478;-52
2023/06/06 07:44:04;;;;;;;;;;;;;;;23.88;75.97;102146.25;5091473;28;20024;-48
2023/06/06 07:46:29;;;;;;;10.43;4.57;;;;;;;23.75;79.59;102141.00;5091754;28;19914;-51
2023/06/06 07:48:55;;;;;;;11.35;4.32;;;;;;;24.68;74.51;102139.22;5091821;28;20305;-50
2023/06/06 07:51:21;;;;;;;9.20;4.45;;;;;;;24.92;75.17;102139.94;5090397;28;20112;-53
2023/06/06 07:53:46;;;;;;;9.63;4.30;;;;;;;24.93;72.11;102141.59;5091659;28;20028;-53
2023/06/06 07:56:13;;;;;;;9.35;4.32;;;;;;;25.35;71.47;102147.63;5089939;28;20073;-49
2023/06/06 07:58:40;;;;;;;10.00;4.72;;;;;;;25.17;72.67;102145.09;5089827;28;20048;-50
2023/06/06 08:01:07;;;;;;;9.82;3.90;;;;;;;25.25;71.53;102143.88;5091515;28;20036;-50
2023/06/06 08:03:32;;;;;;;10.98;3.90;;;;;;;25.79;68.79;102145.03;5091239;28;20389;-51
2023/06/06 08:05:58;;;;;;;10.55;5.13;;;;;;;25.44;70.31;102136.22;5091082;28;20020;-50
2023/06/06 08:08:26;;;;;;;7.55;4.03;;;;;;;25.30;70.69;102141.19;5091102;28;20032;-54
2023/06/06 08:10:51;;;;;;;12.40;4.65;;;;;;;26.00;67.37;102142.63;5089571;28;20111;-50
2023/06/06 08:13:17;;;;;;;12.73;4.22;;;;;;;26.19;67.49;102146.72;5072514;28;20119;-51
2023/06/06 08:15:42;;;;;;;10.50;4.32;;;;;;;25.81;68.73;102142.03;5091259;28;20034;-49
2023/06/06 08:18:08;;;;;;;10.75;3.83;;;;;;;26.28;66.69;102145.22;5072486;28;20031;-51
2023/06/06 08:20:34;;;;;;;9.05;3.95;;;;;;;26.60;66.38;102139.00;5090960;28;20055;-50
2023/06/06 08:22:59;;;;;;;7.43;3.65;;;;;;;26.86;65.28;102142.91;5091035;28;20476;-52
2023/06/06 08:25:25;;;;;;;8.57;4.20;;;;;;;27.10;63.55;102145.34;5089385;28;20029;-49
2023/06/06 08:27:50;;;;;;;7.47;3.95;;;;;;;26.93;63.82;102142.66;5090368;28;20034;-51
2023/06/06 08:30:15;;;;;;;9.15;4.00;;;;;;;27.18;62.59;102141.31;5072843;28;20028;-50
2023/06/06 08:32:41;;;;;;;12.95;5.13;;;;;;;26.71;62.88;102139.97;5090567;28;20466;-49
2023/06/06 08:35:07;;;;;;;10.27;4.30;;;;;;;26.70;63.87;102132.78;5090722;28;20035;-53
2023/06/06 08:37:32;;;;;;;12.18;4.68;;;;;;;26.18;65.39;102135.97;5091116;28;20044;-51
2023/06/06 08:39:57;;;;;;;8.77;4.13;;;;;;;26.87;64.22;102141.78;5093097;28;20473;-51
2023/06/06 08:42:24;;;;;;;9.30;4.05;;;;;;;27.10;62.64;102137.88;5094795;28;20060;-48
2023/06/06 08:44:52;;;;;;;11.38;4.60;;;;;;;26.78;63.69;102129.56;5094614;28;20107;-50
2023/06/06 08:47:18;;;;;;;12.88;4.78;;;;;;;27.09;63.87;102129.84;5093464;28;20035;-54
2023/06/06 08:49:43;;;;;;;13.93;3.83;;;;;;;27.66;61.40;102129.25;5093129;28;20469;-51
2023/06/06 08:52:10;;;;;;;11.23;4.43;;;;;;;27.19;61.37;102135.50;5093106;28;20064;-50
2023/06/06 08:54:36;;;;;;;10.87;4.90;;;;;;;26.92;63.16;102136.31;5059277;28;20082;-49
2023/06/06 08:57:08;;;;;;;13.32;4.47;;;;;;;27.35;63.13;102133.69;5094703;28;20447;-50
2023/06/06 08:59:37;;;;;;;9.82;4.38;;;;;;;27.77;60.55;102133.75;5092956;28;20131;-50
2023/06/06 09:02:05;;;;;;;16.30;4.97;;;;;;;27.76;59.73;102128.50;5094301;28;20028;-49
2023/06/06 09:04:33;;;;;;;12.60;5.47;;;;;;;27.63;61.04;102128.97;5094760;28;20077;-49
2023/06/06 09:07:02;;;;;;;9.07;4.28;;;;;;;27.75;58.25;102133.19;5076073;28;20024;-52
2023/06/06 09:09:28;;;;;;;9.10;4.35;;;;;;;27.14;62.28;102122.44;5093841;28;20024;-51
2023/06/06 09:11:53;;;;;;;12.50;4.40;;;;;;;27.74;59.52;102125.97;5094219;28;20430;-48
2023/06/06 09:14:19;;;;;;;11.68;5.03;;;;;;;27.50;60.34;102131.06;5093928;28;20075;-49
2023/06/06 09:16:44;;;;;;;14.55;5.05;;;;;;;27.52;60.67;102130.81;5092555;28;20027;-49
2023/06/06 09:19:10;;;;;;;12.40;4.95;;;;;;;27.25;60.24;102130.84;5093737;28;20047;-49
2023/06/06 09:21:36;;;;;;;9.35;4.55;;;;;;;27.21;61.28;102130.53;5092641;28;20394;-52
2023/06/06 09:24:01;;;;;;;9.95;4.70;;;;;;;27.28;61.22;102139.47;5094268;28;20588;-52
2023/06/06 09:26:28;;;;;;;8.77;4.45;;;;;;;27.41;61.87;102129.03;5094101;28;20028;-50
2023/06/06 09:28:54;;;;;;;10.07;4.40;;;;;;;27.85;60.91;102128.84;5076660;28;20036;-51
2023/06/06 09:31:29;;;;;;;12.98;5.20;;;;;;;28.06;59.49;102122.31;5093182;28;20051;-50
2023/06/06 09:33:56;;;;;;;12.10;4.93;;;;;;;28.13;59.34;102117.38;5094257;28;20028;-53
2023/06/06 09:36:29;;;;;;;12.02;4.70;;;;;;;27.98;58.22;102111.75;5093947;28;20062;-50
2023/06/06 09:39:08;;;;;;;10.30;4.85;;;;;;;27.84;58.53;102113.34;5093646;28;20077;-49
2023/06/06 09:41:45;;;;;;;9.82;4.50;;;;;;;27.97;59.38;102121.19;5093578;28;20043;-49
2023/06/06 09:44:23;;;;;;;10.82;4.85;;;;;;;27.61;60.22;102109.03;5093508;28;20038;-53
2023/06/06 09:46:57;;;;;;;19.33;4.65;;;;;;;28.07;59.86;102115.69;5093374;28;20020;-48
2023/06/06 09:49:22;;;;;;;20.08;3.88;;;;;;;28.35;60.67;102113.59;5090801;28;20377;-48
2023/06/06 09:51:48;;;;;;;12.80;3.67;;;;;;;28.09;60.06;102121.78;5091944;28;20031;-49
2023/06/06 09:54:15;;;;;;;12.85;3.63;;;;;;;28.44;60.49;102112.00;5093037;28;20024;-48
2023/06/06 09:56:42;;;;;;;10.43;3.50;;;;;;;28.18;61.31;102106.34;5093616;28;20036;-48
2023/06/06 09:59:08;;;;;;;12.65;4.13;;;;;;;28.50;60.64;102110.91;5093163;28;20540;-51
2023/06/06 10:01:36;;;;;;;25.25;3.95;;;;;;;28.69;60.05;102111.25;5092113;28;20043;-53
2023/06/06 10:04:03;;;;;;;7.55;3.40;;;;;;;28.15;60.74;102115.19;5075222;28;20024;-51
2023/06/06 10:06:33;;;;;;;16.33;3.70;;;;;;;28.20;60.39;102112.44;5091885;28;20123;-49
2023/06/06 10:09:01;;;;;;;25.98;3.67;;;;;;;28.36;59.87;102110.56;5091800;28;20398;-49
2023/06/06 10:11:27;;;;;;;18.67;4.05;;;;;;;28.39;60.35;102110.03;5091909;28;20024;-51
2023/06/06 10:13:54;;;;;;;12.95;3.40;;;;;;;28.68;58.59;102112.34;5092089;28;20027;-50
2023/06/06 10:16:21;;;;;;;11.13;3.30;;;;;;;27.97;60.09;102116.47;5092945;28;20047;-49
2023/06/06 10:18:46;;;;;;;;;;;;;;;28.40;59.44;102110.84;5092419;28;20440;-47
2023/06/06 10:21:15;;;;;;;9.30;3.13;;;;;;;28.07;60.36;102112.94;5091765;28;20376;-51
2023/06/06 10:23:41;;;;;;;10.95;2.78;;;;;;;27.85;60.19;102110.31;5091623;28;20459;-49
2023/06/06 10:26:10;;;;;;;11.23;3.30;;;;;;;27.89;60.27;102108.69;5092953;28;20088;-52
2023/06/06 10:28:39;;;;;;;11.50;3.33;;;;;;;27.91;61.29;102108.41;5091797;28;20024;-51
2023/06/06 10:31:14;;;;;;;11.50;3.33;;;;;;;27.42;62.40;102112.22;5091581;28;20024;-49
2023/06/06 10:34:02;;;;;;;13.88;3.55;;;;;;;27.41;62.62;102107.78;5074911;28;20054;-46
2023/06/06 10:36:38;;;;;;;15.95;3.30;;;;;;;27.31;62.96;102110.47;5092863;28;20040;-49
2023/06/06 10:39:20;;;;;;;9.43;2.72;;;;;;;27.34;61.96;102112.69;5092655;28;20379;-53
2023/06/06 10:42:16;;;;;;;9.90;3.00;;;;;;;27.86;61.58;102102.84;5092884;28;20032;-52
2023/06/06 10:44:54;;;;;;;8.77;3.10;;;;;;;28.32;59.79;102108.59;5092543;28;20039;-49
2023/06/06 10:47:32;;;;;;;16.60;3.83;;;;;;;27.90;60.41;102103.97;5091389;28;20034;-50
2023/06/06 10:50:10;;;;;;;8.60;3.20;;;;;;;27.69;60.92;102106.59;5091432;28;20027;-50
2023/06/06 10:52:51;;;;;;;12.50;3.30;;;;;;;27.44;61.87;102114.72;5093062;28;20028;-51
2023/06/06 10:55:22;;;;;;;11.98;3.25;;;;;;;27.48;63.79;102110.31;5092807;28;20386;-52
2023/06/06 10:57:51;;;;;;;21.50;4.05;;;;;;;27.75;62.29;102096.38;5092009;28;20051;-50
2023/06/06 11:00:17;;;;;;;15.10;3.33;;;;;;;27.79;61.57;102100.28;5091880;28;20119;-51
2023/06/06 11:02:46;;;;;;;12.07;3.30;;;;;;;27.95;61.93;102104.84;5091064;28;20036;-52
2023/06/06 11:05:13;;;;;;;13.60;3.70;;;;;;;27.86;61.02;102103.69;5092158;28;20768;-52
2023/06/06 11:07:39;;;;;;;;;;;;;;;27.44;62.14;102107.25;5074869;28;20032;-49
2023/06/06 11:10:05;;;;;;;10.43;2.80;;;;;;;27.83;62.19;102104.19;5092040;28;19970;-47
2023/06/06 11:12:32;;;;;;;12.05;3.60;;;;;;;28.03;62.96;102095.19;5091619;28;20427;-52
2023/06/06 11:15:07;;;;;;;16.15;3.60;;;;;;;28.01;60.73;102100.16;5092133;28;20028;-49